Time;durP1;ratioP1;P1;durP2;ratioP2;P2;SDS_P1;SDS_P2;PMS_P1;PMS_P2;Temp;Humidity;BMP_temperature;BMP_pressure;BME280_temperature;BME280_humidity;BME280_pressure;Samples;Min_cycle;Max_cycle;Signal;HPM_P1;HPM_P2
2023/04/12 00:00:56;;;;;;;6.32;3.25;;;;;;;0.81;100.00;98049.81;4168294;28;20389;-71
2023/04/12 00:02:58;;;;;;;6.97;2.78;;;;;;;0.82;100.00;98054.91;4163727;28;20049;-71
2023/04/12 00:05:01;;;;;;;6.10;3.17;;;;;;;0.87;100.00;98048.50;4160280;28;20053;-71
2023/04/12 00:07:02;;;;;;;4.55;2.55;;;;;;;0.89;100.00;98042.72;4160444;28;20409;-71
2023/04/12 00:09:03;;;;;;;5.97;3.10;;;;;;;0.91;100.00;98035.84;4158639;28;20128;-71
2023/04/12 00:11:03;;;;;;;4.13;2.90;;;;;;;0.89;100.00;98027.19;4159040;28;20041;-71
2023/04/12 00:13:03;;;;;;;3.80;2.30;;;;;;;0.85;100.00;98023.53;4159656;28;20474;-71
2023/04/12 00:15:04;;;;;;;4.68;3.00;;;;;;;0.79;100.00;98016.66;4162613;28;20040;-71
2023/04/12 00:17:05;;;;;;;4.32;2.67;;;;;;;0.69;100.00;98011.56;4159194;28;20068;-71
2023/04/12 00:19:05;;;;;;;3.90;2.65;;;;;;;0.58;100.00;98005.66;4159002;28;20305;-71
2023/04/12 00:21:07;;;;;;;3.13;2.47;;;;;;;0.52;100.00;98010.47;4159974;28;20104;-71
2023/04/12 00:23:08;;;;;;;4.40;2.87;;;;;;;0.40;100.00;98010.31;4158023;28;20056;-71
2023/04/12 00:25:09;;;;;;;3.42;2.70;;;;;;;0.39;100.00;98000.56;4159400;28;20319;-71
2023/04/12 00:27:09;;;;;;;4.18;2.72;;;;;;;0.44;100.00;97994.16;4161505;28;20038;-71
2023/04/12 00:29:10;;;;;;;4.22;2.70;;;;;;;0.43;100.00;97992.56;4161919;28;20034;-71
2023/04/12 00:31:10;;;;;;;4.10;3.10;;;;;;;0.39;100.00;97992.41;4162487;28;20478;-71
2023/04/12 00:33:11;;;;;;;4.60;2.80;;;;;;;0.44;100.00;97983.28;4162745;28;20331;-71
2023/04/12 00:35:11;;;;;;;5.00;2.38;;;;;;;0.50;100.00;97984.72;4164214;28;20067;-71
2023/04/12 00:37:11;;;;;;;5.03;2.50;;;;;;;0.49;100.00;97975.72;4161203;28;20053;-71
2023/04/12 00:39:11;;;;;;;4.53;2.30;;;;;;;0.50;100.00;97974.63;4163045;28;20469;-71
2023/04/12 00:41:13;;;;;;;3.33;2.40;;;;;;;0.55;100.00;97974.44;4163166;28;20087;-71
2023/04/12 00:43:17;;;;;;;3.80;2.67;;;;;;;0.54;100.00;97966.59;4165059;28;20057;-71
2023/04/12 00:45:17;;;;;;;5.35;2.47;;;;;;;0.53;100.00;97967.72;4163778;28;20136;-71
2023/04/12 00:47:18;;;;;;;4.30;2.33;;;;;;;0.54;100.00;97966.59;4162519;28;20120;-71
2023/04/12 00:49:18;;;;;;;4.95;2.78;;;;;;;0.53;100.00;97963.06;4177817;28;20049;-71
2023/04/12 00:51:21;;;;;;;4.90;2.55;;;;;;;0.51;100.00;97968.06;4162299;28;20125;-71
2023/04/12 00:53:24;;;;;;;5.03;2.67;;;;;;;0.59;100.00;97965.63;4162533;28;20029;-71
2023/04/12 00:55:24;;;;;;;5.10;2.53;;;;;;;0.62;100.00;97960.31;4162039;28;20398;-71
2023/04/12 00:57:25;;;;;;;6.85;2.42;;;;;;;0.63;100.00;97961.91;4162474;28;20295;-70
2023/04/12 00:59:25;;;;;;;3.97;2.47;;;;;;;0.63;100.00;97961.91;4167701;28;20037;-71
2023/04/12 01:01:27;;;;;;;4.18;2.30;;;;;;;0.63;100.00;97948.31;4162326;28;20040;-71
2023/04/12 01:03:29;;;;;;;5.53;2.63;;;;;;;0.61;100.00;97947.84;4161572;28;20405;-71
2023/04/12 01:05:39;;;;;;;4.68;2.97;;;;;;;0.61;100.00;97944.31;4162384;28;20393;-71
2023/04/12 01:07:53;;;;;;;5.05;2.35;;;;;;;0.57;100.00;97947.69;4163293;28;20485;-71
2023/04/12 01:10:17;;;;;;;7.18;2.92;;;;;;;0.58;100.00;97943.06;4162133;28;20041;-71
2023/04/12 01:12:29;;;;;;;3.33;2.13;;;;;;;0.60;100.00;97942.72;4161478;28;20048;-71
2023/04/12 01:14:39;;;;;;;9.75;2.72;;;;;;;0.61;100.00;97927.97;4161895;28;20136;-71
2023/04/12 01:16:46;;;;;;;4.15;2.38;;;;;;;0.59;100.00;97931.03;4162864;28;20122;-71
2023/04/12 01:18:51;;;;;;;3.92;2.38;;;;;;;0.62;100.00;97924.94;4163752;28;20053;-71
2023/04/12 01:21:07;;;;;;;5.50;2.70;;;;;;;0.65;100.00;97918.81;4161851;28;20045;-71
2023/04/12 01:23:21;;;;;;;5.00;3.30;;;;;;;0.67;100.00;97919.31;4160356;28;20056;-71
2023/04/12 01:25:44;;;;;;;4.28;2.22;;;;;;;0.66;100.00;97923.13;4162378;28;20386;-71
2023/04/12 01:27:48;;;;;;;8.95;2.72;;;;;;;0.72;100.00;97926.50;4162475;28;20060;-70
2023/04/12 01:29:50;;;;;;;4.68;2.40;;;;;;;0.73;100.00;97917.19;4162591;28;20504;-70
2023/04/12 01:32:00;;;;;;;4.23;2.60;;;;;;;0.68;100.00;97915.47;4166458;28;20664;-71
2023/04/12 01:34:02;;;;;;;4.78;2.40;;;;;;;0.64;100.00;97919.94;4167862;28;20041;-71
2023/04/12 01:36:12;;;;;;;3.28;2.00;;;;;;;0.76;100.00;97911.09;4162308;28;20037;-71
2023/04/12 01:38:13;;;;;;;3.03;2.05;;;;;;;0.81;100.00;97911.72;4166096;28;20076;-71
2023/04/12 01:40:14;;;;;;;6.43;2.63;;;;;;;0.82;100.00;97894.22;4161573;28;20029;-71
2023/04/12 01:42:19;;;;;;;2.90;2.17;;;;;;;0.81;100.00;97884.47;4162645;28;20460;-71
2023/04/12 01:44:20;;;;;;;3.40;2.47;;;;;;;0.80;100.00;97893.78;4162147;28;20499;-71
2023/04/12 01:46:22;;;;;;;5.05;2.88;;;;;;;0.80;100.00;97898.41;4161557;28;20108;-71
2023/04/12 01:48:22;;;;;;;4.35;2.10;;;;;;;0.78;100.00;97897.97;4164591;28;20071;-71
2023/04/12 01:50:32;;;;;;;4.50;2.30;;;;;;;0.77;100.00;97896.38;4162213;28;20065;-71
2023/04/12 01:52:37;;;;;;;4.50;2.13;;;;;;;0.78;100.00;97887.06;4160148;28;20048;-71
2023/04/12 01:54:41;;;;;;;3.90;2.17;;;;;;;0.77;100.00;97878.09;4162293;28;20106;-71
2023/04/12 01:56:46;;;;;;;2.80;1.88;;;;;;;0.80;100.00;97887.53;4161968;28;20053;-71
2023/04/12 01:58:49;;;;;;;4.25;2.13;;;;;;;0.81;100.00;97880.94;4161225;28;20053;-70
2023/04/12 02:00:51;;;;;;;5.38;2.15;;;;;;;0.79;100.00;97877.78;4161106;28;20128;-71
2023/04/12 02:02:51;;;;;;;3.75;2.25;;;;;;;0.77;100.00;97866.41;4166200;28;20041;-71
2023/04/12 02:04:53;;;;;;;3.30;1.70;;;;;;;0.79;100.00;97858.69;4161471;28;20521;-71
2023/04/12 02:06:54;;;;;;;6.43;2.38;;;;;;;0.76;100.00;97853.94;4161834;28;20145;-71
2023/04/12 02:08:59;;;;;;;3.53;2.13;;;;;;;0.76;100.00;97856.66;4161724;28;20444;-71
2023/04/12 02:11:06;;;;;;;4.28;2.30;;;;;;;0.72;100.00;97853.78;4166401;28;20041;-71
2023/04/12 02:13:06;;;;;;;5.47;2.50;;;;;;;0.71;100.00;97852.19;4163151;28;20574;-71
2023/04/12 02:15:07;;;;;;;3.10;2.20;;;;;;;0.75;100.00;97844.97;4162966;28;20120;-71
2023/04/12 02:17:08;;;;;;;3.80;2.33;;;;;;;0.80;100.00;97839.31;4163018;28;20474;-71
2023/04/12 02:19:09;;;;;;;4.00;2.55;;;;;;;0.83;100.00;97843.31;4165644;28;20047;-71
2023/04/12 02:21:09;;;;;;;3.85;2.10;;;;;;;0.89;100.00;97836.53;4159983;28;20037;-71
2023/04/12 02:23:10;;;;;;;5.10;2.53;;;;;;;0.90;100.00;97835.41;4160743;28;20572;-71
2023/04/12 02:25:10;;;;;;;8.35;2.53;;;;;;;0.90;100.00;97835.41;4162024;28;20061;-71
2023/04/12 02:27:11;;;;;;;7.22;2.03;;;;;;;0.88;100.00;97826.78;4160971;28;20030;-70
2023/04/12 02:29:11;;;;;;;6.63;2.47;;;;;;;0.91;100.00;97815.22;4160416;28;20599;-71
2023/04/12 02:31:12;;;;;;;3.30;1.75;;;;;;;0.96;100.00;97811.50;4162987;28;20135;-71
2023/04/12 02:33:14;;;;;;;5.07;2.20;;;;;;;0.95;100.00;97807.97;4161097;28;20079;-71
2023/04/12 02:35:18;;;;;;;5.55;2.15;;;;;;;0.92;100.00;97797.75;4159715;28;20337;-70
2023/04/12 02:37:20;;;;;;;4.22;2.60;;;;;;;0.91;100.00;97790.72;4161138;28;20136;-70
2023/04/12 02:39:21;;;;;;;;;;;;;;;0.90;100.00;97791.81;4164991;28;20033;-71
2023/04/12 02:41:22;;;;;;;4.68;2.20;;;;;;;0.88;100.00;97783.19;4164676;28;20331;-71
2023/04/12 02:43:22;;;;;;;5.70;2.25;;;;;;;0.89;100.00;97781.25;4159418;28;20057;-70
2023/04/12 02:45:22;;;;;;;2.33;1.83;;;;;;;0.89;100.00;97779.34;4160989;28;20331;-71
2023/04/12 02:47:27;;;;;;;4.30;1.95;;;;;;;0.88;100.00;97772.28;4162064;28;20104;-71
2023/04/12 02:49:28;;;;;;;4.50;2.00;;;;;;;0.91;100.00;97770.81;4159581;28;20041;-71
2023/04/12 02:51:28;;;;;;;3.70;1.90;;;;;;;0.94;100.00;97770.19;4160192;28;20418;-71
2023/04/12 02:53:29;;;;;;;3.33;1.90;;;;;;;0.92;100.00;97769.72;4160800;28;20393;-71
2023/04/12 02:55:29;;;;;;;3.58;1.63;;;;;;;0.96;100.00;97763.25;4160589;28;20041;-71
2023/04/12 02:57:30;;;;;;;3.47;1.83;;;;;;;0.97;100.00;97767.56;4161163;28;20049;-71
2023/04/12 02:59:30;;;;;;;4.18;2.10;;;;;;;0.99;100.00;97753.63;4161940;28;20140;-71
2023/04/12 03:01:32;;;;;;;3.85;1.60;;;;;;;1.01;100.00;97760.34;4160047;28;20036;-71
2023/04/12 03:03:33;;;;;;;9.55;2.38;;;;;;;1.03;100.00;97758.09;4161286;28;20175;-71
2023/04/12 03:05:35;;;;;;;5.30;1.90;;;;;;;1.07;100.00;97758.19;4159775;28;20304;-71
2023/04/12 03:07:35;;;;;;;6.28;2.42;;;;;;;1.07;100.00;97755.47;4164645;28;20054;-71
2023/04/12 03:09:37;;;;;;;4.82;2.05;;;;;;;1.08;100.00;97757.91;4160879;28;20128;-71
2023/04/12 03:11:37;;;;;;;3.28;1.85;;;;;;;1.10;100.00;97750.19;4160611;28;20110;-71
2023/04/12 03:13:38;;;;;;;3.75;1.92;;;;;;;1.14;100.00;97758.47;4161017;28;20136;-71
2023/04/12 03:15:38;;;;;;;4.00;2.10;;;;;;;1.13;100.00;97754.16;4159525;28;20045;-71
2023/04/12 03:17:39;;;;;;;3.35;2.08;;;;;;;1.16;100.00;97749.94;4162030;28;20043;-71
2023/04/12 03:19:40;;;;;;;3.33;1.90;;;;;;;1.16;100.00;97745.34;4160081;28;20037;-71
2023/04/12 03:21:40;;;;;;;3.72;2.30;;;;;;;1.21;100.00;97747.03;4160263;28;20052;-71
2023/04/12 03:23:41;;;;;;;4.07;1.90;;;;;;;1.23;100.00;97742.03;4160261;28;20144;-71
2023/04/12 03:25:41;;;;;;;4.88;1.88;;;;;;;1.23;100.00;97733.88;4159305;28;20135;-71
2023/04/12 03:27:41;;;;;;;5.32;2.40;;;;;;;1.25;100.00;97737.88;4161598;28;20148;-71
2023/04/12 03:29:42;;;;;;;3.00;1.90;;;;;;;1.27;100.00;97732.09;4159514;28;20114;-71
2023/04/12 03:31:42;;;;;;;6.22;2.00;;;;;;;1.32;100.00;97723.69;4163503;28;20121;-71
2023/04/12 03:33:42;;;;;;;3.70;1.80;;;;;;;1.35;100.00;97721.09;4159524;28;20043;-71
2023/04/12 03:35:44;;;;;;;6.25;2.00;;;;;;;1.44;100.00;97718.28;4159062;28;20115;-71
2023/04/12 03:37:44;;;;;;;2.63;1.70;;;;;;;1.50;100.00;97710.69;4160284;28;20044;-71
2023/04/12 03:39:46;;;;;;;2.55;1.60;;;;;;;1.51;100.00;97715.00;4159879;28;20041;-71
2023/04/12 03:41:47;;;;;;;2.88;2.10;;;;;;;1.54;100.00;97717.06;4160150;28;20046;-71
2023/04/12 03:43:47;;;;;;;6.03;2.42;;;;;;;1.60;100.00;97712.97;4159175;28;20061;-71
2023/04/12 03:45:47;;;;;;;4.47;2.10;;;;;;;1.62;100.00;97705.25;4160324;28;20073;-71
2023/04/12 03:47:48;;;;;;;3.53;1.70;;;;;;;1.68;100.00;97701.19;4161536;28;20140;-71
2023/04/12 03:49:48;;;;;;;3.72;2.25;;;;;;;1.71;100.00;97695.03;4162925;28;20099;-71
2023/04/12 03:51:49;;;;;;;5.15;1.95;;;;;;;1.75;100.00;97700.63;4160683;28;20386;-71
2023/04/12 03:53:50;;;;;;;6.93;2.50;;;;;;;1.78;100.00;97697.22;4165278;28;20037;-71
2023/04/12 03:55:50;;;;;;;2.97;1.90;;;;;;;1.78;100.00;97697.22;4158804;28;20531;-71
2023/04/12 03:57:50;;;;;;;6.90;2.00;;;;;;;1.77;100.00;97688.25;4160336;28;20547;-71
2023/04/12 03:59:51;;;;;;;5.85;2.13;;;;;;;1.86;100.00;97701.78;4163168;28;20044;-71
2023/04/12 04:01:51;;;;;;;3.47;1.80;;;;;;;1.88;100.00;97699.50;4159390;28;20030;-71
2023/04/12 04:03:52;;;;;;;3.35;1.85;;;;;;;1.91;100.00;97696.09;4157589;28;20038;-71
2023/04/12 04:05:52;;;;;;;4.65;2.00;;;;;;;1.92;100.00;97690.31;4165540;28;20041;-71
2023/04/12 04:07:52;;;;;;;4.03;2.30;;;;;;;1.94;100.00;97682.56;4159700;28;20402;-71
2023/04/12 04:09:54;;;;;;;4.97;1.80;;;;;;;1.96;100.00;97687.66;4158057;28;20045;-71
2023/04/12 04:11:55;;;;;;;11.73;2.25;;;;;;;1.93;100.00;97691.09;4160522;28;20045;-71
2023/04/12 04:13:55;;;;;;;3.00;1.88;;;;;;;1.92;100.00;97678.59;4159190;28;20128;-70
2023/04/12 04:16:04;;;;;;;3.00;1.90;;;;;;;1.91;100.00;97685.19;4158708;28;20450;-71
2023/04/12 04:18:04;;;;;;;4.65;2.17;;;;;;;1.88;100.00;97678.47;4161886;28;20033;-71
2023/04/12 04:20:07;;;;;;;5.57;1.85;;;;;;;1.88;100.00;97683.13;4162689;28;20029;-71
2023/04/12 04:22:08;;;;;;;5.20;2.50;;;;;;;1.86;100.00;97683.47;4159742;28;20124;-71
2023/04/12 04:24:10;;;;;;;4.30;2.07;;;;;;;1.87;100.00;97681.53;4159113;28;20033;-71
2023/04/12 04:26:11;;;;;;;5.55;2.55;;;;;;;1.88;100.00;97675.72;4158867;28;20026;-71
2023/04/12 04:28:11;;;;;;;5.20;2.03;;;;;;;1.90;100.00;97678.94;4159604;28;20051;-71
2023/04/12 04:30:14;;;;;;;3.20;1.75;;;;;;;1.89;100.00;97665.63;4159954;28;20079;-71
2023/04/12 04:32:14;;;;;;;;;;;;;;;1.92;100.00;97681.31;4159606;28;20497;-71
2023/04/12 04:34:15;;;;;;;3.13;1.98;;;;;;;1.94;100.00;97674.38;4159388;28;19920;-71
2023/04/12 04:36:15;;;;;;;4.43;2.10;;;;;;;1.98;100.00;97661.63;4158885;28;20373;-71
2023/04/12 04:38:15;;;;;;;3.40;2.00;;;;;;;1.98;100.00;97660.84;4159957;28;20025;-71
2023/04/12 04:40:17;;;;;;;4.55;2.47;;;;;;;2.08;100.00;97668.59;4159665;28;20441;-71
2023/04/12 04:42:17;;;;;;;8.03;2.37;;;;;;;2.16;100.00;97662.22;4159866;28;20033;-71
2023/04/12 04:44:18;;;;;;;3.90;1.70;;;;;;;2.22;100.00;97668.22;4159464;28;20419;-71
2023/04/12 04:46:22;;;;;;;2.72;1.67;;;;;;;2.23;100.00;97661.63;4158678;28;20018;-71
2023/04/12 04:48:23;;;;;;;6.28;2.38;;;;;;;2.25;100.00;97648.44;4160597;28;20045;-71
2023/04/12 04:50:25;;;;;;;5.80;2.33;;;;;;;2.32;100.00;97658.75;4158335;28;20347;-71
2023/04/12 04:52:25;;;;;;;9.60;2.30;;;;;;;2.33;100.00;97663.91;4159159;28;20045;-71
2023/04/12 04:54:26;;;;;;;4.05;2.35;;;;;;;2.36;100.00;97651.50;4160136;28;20408;-71
2023/04/12 04:56:26;;;;;;;3.80;1.92;;;;;;;2.37;100.00;97655.81;4099909;28;20049;-71
2023/04/12 04:58:26;;;;;;;5.30;2.60;;;;;;;2.37;100.00;97644.88;4144666;28;20501;-71
2023/04/12 05:00:27;;;;;;;2.70;2.03;;;;;;;2.43;100.00;97651.72;4146918;28;20038;-71
2023/04/12 05:02:27;;;;;;;3.33;2.00;;;;;;;2.44;100.00;97634.19;4142388;28;20065;-71
2023/04/12 05:04:28;;;;;;;3.25;1.70;;;;;;;2.46;100.00;97640.88;4142504;28;20188;-71
2023/04/12 05:06:29;;;;;;;3.83;1.60;;;;;;;2.49;100.00;97645.66;4143625;28;20096;-71
2023/04/12 05:08:30;;;;;;;3.95;2.20;;;;;;;2.52;100.00;97633.25;4148867;28;20033;-71
2023/04/12 05:10:30;;;;;;;3.42;2.00;;;;;;;2.57;100.00;97638.50;4147571;28;20049;-71
2023/04/12 05:12:30;;;;;;;4.55;2.38;;;;;;;2.62;100.00;97624.56;4145967;28;20041;-71
2023/04/12 05:14:31;;;;;;;2.50;1.83;;;;;;;2.65;100.00;97625.81;4150319;28;20104;-71
2023/04/12 05:16:32;;;;;;;2.83;1.73;;;;;;;2.68;100.00;97619.66;4145853;28;20525;-71
2023/04/12 05:18:32;;;;;;;3.65;2.35;;;;;;;2.73;100.00;97616.66;4144650;28;20058;-71
2023/04/12 05:20:33;;;;;;;8.70;2.28;;;;;;;2.77;100.00;97610.19;4146601;28;20050;-71
2023/04/12 05:22:34;;;;;;;4.55;2.53;;;;;;;2.84;100.00;97609.59;4145168;28;20073;-71
2023/04/12 05:24:34;;;;;;;4.68;2.20;;;;;;;2.88;100.00;97607.72;4144934;28;20038;-71
2023/04/12 05:26:35;;;;;;;2.88;1.80;;;;;;;2.92;100.00;97607.84;4146365;28;20425;-71
2023/04/12 05:28:35;;;;;;;3.40;1.92;;;;;;;2.96;100.00;97600.53;4145410;28;20038;-71
2023/04/12 05:30:38;;;;;;;6.53;1.83;;;;;;;3.02;100.00;97594.47;4144646;28;20048;-70
2023/04/12 05:32:39;;;;;;;2.05;1.73;;;;;;;3.09;100.00;97591.13;4144797;28;20363;-71
2023/04/12 05:34:41;;;;;;;3.35;1.70;;;;;;;3.17;100.00;97586.66;4146158;28;20367;-71
2023/04/12 05:36:41;;;;;;;4.35;2.08;;;;;;;3.23;100.00;97588.00;4145034;28;20085;-71
2023/04/12 05:38:42;;;;;;;3.08;1.60;;;;;;;3.28;100.00;97582.25;4151702;28;20040;-71
2023/04/12 05:40:45;;;;;;;3.65;1.80;;;;;;;3.37;100.00;97580.91;4146640;28;20436;-71
2023/04/12 05:42:45;;;;;;;4.15;1.70;;;;;;;3.48;100.00;97578.47;4146692;28;20565;-71
2023/04/12 05:44:47;;;;;;;5.70;2.05;;;;;;;3.60;100.00;97575.63;4145122;28;20089;-71
2023/04/12 05:46:47;;;;;;;3.53;1.55;;;;;;;3.81;100.00;97578.09;4143851;28;20046;-71
2023/04/12 05:48:48;;;;;;;2.60;1.55;;;;;;;3.99;100.00;97581.22;4161440;28;20060;-71
2023/04/12 05:50:52;;;;;;;11.30;2.25;;;;;;;4.18;100.00;97570.31;4144001;28;20076;-71
2023/04/12 05:52:54;;;;;;;4.63;1.77;;;;;;;4.36;100.00;97573.44;4144290;28;20069;-71
2023/04/12 05:54:55;;;;;;;5.43;2.20;;;;;;;4.56;100.00;97577.00;4143875;28;20038;-71
2023/04/12 05:56:56;;;;;;;4.28;2.00;;;;;;;4.65;100.00;97572.09;4144383;28;20839;-71
2023/04/12 05:58:56;;;;;;;8.50;2.22;;;;;;;4.82;100.00;97568.09;4146842;28;20620;-71
2023/04/12 06:00:56;;;;;;;5.13;1.92;;;;;;;4.87;100.00;97559.56;4144382;28;20128;-71
2023/04/12 06:02:57;;;;;;;4.80;1.58;;;;;;;5.07;100.00;97569.38;4145015;28;20449;-71
2023/04/12 06:04:58;;;;;;;4.55;1.67;;;;;;;5.15;99.64;97564.03;4144545;28;20149;-71
2023/04/12 06:06:58;;;;;;;3.60;1.65;;;;;;;5.26;100.00;97556.75;4144980;28;20053;-71
2023/04/12 06:09:01;;;;;;;6.47;1.80;;;;;;;5.28;100.00;97555.22;4145668;28;20044;-71
2023/04/12 06:11:02;;;;;;;7.22;2.13;;;;;;;5.32;100.00;97555.31;4144602;28;20053;-71
2023/04/12 06:13:02;;;;;;;5.78;1.50;;;;;;;5.32;98.39;97550.63;4144144;28;20038;-71
2023/04/12 06:15:02;;;;;;;5.78;1.98;;;;;;;5.41;100.00;97558.59;4144830;28;20390;-71
2023/04/12 06:17:03;;;;;;;4.50;1.45;;;;;;;5.47;100.00;97559.09;4145948;28;20041;-71
2023/04/12 06:19:04;;;;;;;7.57;1.58;;;;;;;5.54;100.00;97564.69;4143803;28;20057;-71
2023/04/12 06:21:04;;;;;;;4.80;2.05;;;;;;;5.57;100.00;97553.78;4145992;28;20060;-71
2023/04/12 06:23:05;;;;;;;4.47;1.60;;;;;;;5.61;100.00;97559.31;4144179;28;20033;-71
2023/04/12 06:25:06;;;;;;;6.70;1.75;;;;;;;5.62;100.00;97549.91;4143917;28;20494;-71
2023/04/12 06:27:07;;;;;;;3.72;2.53;;;;;;;5.67;100.00;97546.06;4146059;28;20077;-71
2023/04/12 06:29:08;;;;;;;4.47;1.65;;;;;;;5.76;97.80;97536.41;4148346;28;20060;-71
2023/04/12 06:31:08;;;;;;;3.22;1.52;;;;;;;5.83;100.00;97538.50;4146351;28;20041;-71
2023/04/12 06:33:10;;;;;;;4.60;2.03;;;;;;;5.99;100.00;97527.38;4148290;28;20076;-71
2023/04/12 06:35:10;;;;;;;4.60;2.13;;;;;;;6.02;100.00;97521.91;4144620;28;20486;-71
2023/04/12 06:37:10;;;;;;;5.05;1.90;;;;;;;6.08;100.00;97517.69;4144727;28;20065;-71
2023/04/12 06:39:11;;;;;;;6.00;1.98;;;;;;;6.11;100.00;97514.19;4144053;28;20038;-71
2023/04/12 06:41:11;;;;;;;4.18;1.65;;;;;;;6.13;100.00;97511.91;4146336;28;20048;-71
2023/04/12 06:43:12;;;;;;;6.40;2.22;;;;;;;6.23;100.00;97501.41;4143219;28;20425;-71
2023/04/12 06:45:12;;;;;;;4.32;1.77;;;;;;;6.22;100.00;97497.88;4144395;28;20246;-71
2023/04/12 06:47:12;;;;;;;3.70;1.80;;;;;;;6.26;100.00;97492.41;4144659;28;20091;-71
2023/04/12 06:49:13;;;;;;;7.45;2.25;;;;;;;6.34;97.74;97481.13;4144604;28;20455;-71
2023/04/12 06:51:13;;;;;;;6.80;1.67;;;;;;;6.33;97.19;97476.03;4144161;28;20526;-71
2023/04/12 06:53:13;;;;;;;3.78;2.13;;;;;;;6.23;96.12;97461.00;4143691;28;20221;-70
2023/04/12 06:55:14;;;;;;;3.15;1.30;;;;;;;6.31;100.00;97461.88;4144382;28;20358;-71
2023/04/12 06:57:14;;;;;;;2.35;1.67;;;;;;;6.39;100.00;97455.31;4146774;28;20469;-71
2023/04/12 06:59:15;;;;;;;3.00;1.80;;;;;;;6.39;100.00;97449.81;4147472;28;20139;-71
2023/04/12 07:01:16;;;;;;;6.72;2.00;;;;;;;6.40;99.35;97443.94;4143713;28;20474;-71
2023/04/12 07:03:16;;;;;;;2.58;1.65;;;;;;;6.50;100.00;97447.97;4146610;28;20045;-71
2023/04/12 07:05:17;;;;;;;9.63;1.90;;;;;;;6.53;100.00;97438.94;4143712;28;20750;-71
2023/04/12 07:07:17;;;;;;;4.53;1.70;;;;;;;6.55;100.00;97433.09;4144124;28;20153;-71
2023/04/12 07:09:18;;;;;;;4.03;1.50;;;;;;;6.55;99.97;97430.34;4144188;28;20062;-71
2023/04/12 07:11:21;;;;;;;2.63;1.77;;;;;;;6.55;98.98;97435.84;4142989;28;20046;-72
2023/04/12 07:13:21;;;;;;;3.63;1.77;;;;;;;6.61;100.00;97446.09;4143528;28;20537;-71
2023/04/12 07:15:21;;;;;;;3.97;1.70;;;;;;;6.67;100.00;97428.13;4143624;28;20045;-71
2023/04/12 07:17:23;;;;;;;3.95;1.98;;;;;;;6.72;98.41;97421.50;4143185;28;20030;-71
2023/04/12 07:19:23;;;;;;;3.03;1.80;;;;;;;6.82;100.00;97422.75;4144187;28;20587;-71
2023/04/12 07:21:23;;;;;;;6.18;1.88;;;;;;;6.90;99.97;97427.16;4143200;28;20037;-71
2023/04/12 07:23:24;;;;;;;3.55;2.22;;;;;;;6.90;99.04;97422.44;4144012;28;20487;-71
2023/04/12 07:25:24;;;;;;;3.38;2.00;;;;;;;6.92;100.00;97422.06;4146214;28;20389;-71
2023/04/12 07:27:24;;;;;;;6.97;2.88;;;;;;;7.07;100.00;97407.28;4146205;28;20433;-72
2023/04/12 07:29:25;;;;;;;8.05;2.83;;;;;;;7.07;98.48;97401.75;4144099;28;20132;-72
2023/04/12 07:31:25;;;;;;;3.53;1.98;;;;;;;7.16;100.00;97401.44;4145771;28;20089;-72
2023/04/12 07:33:25;;;;;;;7.93;2.60;;;;;;;7.18;100.00;97397.13;4143079;28;20147;-72
2023/04/12 07:35:26;;;;;;;6.22;2.38;;;;;;;7.19;99.03;97401.44;4144578;28;20045;-71
2023/04/12 07:37:26;;;;;;;7.25;3.30;;;;;;;7.17;99.77;97403.00;4143655;28;20045;-71
2023/04/12 07:39:28;;;;;;;3.95;2.00;;;;;;;7.15;98.43;97395.16;4143114;28;20141;-72
2023/04/12 07:41:28;;;;;;;4.28;2.20;;;;;;;7.14;98.46;97395.53;4145924;28;20550;-72
2023/04/12 07:43:29;;;;;;;5.28;2.13;;;;;;;7.18;98.64;97374.34;4143408;28;20069;-72
2023/04/12 07:45:29;;;;;;;7.45;2.80;;;;;;;7.22;100.00;97370.44;4146317;28;20041;-71
2023/04/12 07:47:30;;;;;;;5.75;2.67;;;;;;;7.28;98.79;97376.34;4143479;28;20072;-71
2023/04/12 07:49:30;;;;;;;7.05;3.03;;;;;;;7.20;96.92;97353.53;4143486;28;20038;-71
2023/04/12 07:51:31;;;;;;;5.57;2.50;;;;;;;7.25;99.14;97363.38;4152574;28;20045;-71
2023/04/12 07:53:32;;;;;;;3.95;2.35;;;;;;;7.30;100.00;97357.53;4142448;28;20050;-71
2023/04/12 07:55:32;;;;;;;5.43;2.20;;;;;;;7.31;98.29;97357.13;4146359;28;20403;-72
2023/04/12 07:57:32;;;;;;;5.10;1.90;;;;;;;7.23;99.32;97366.53;4144816;28;20375;-72
2023/04/12 07:59:33;;;;;;;3.95;2.00;;;;;;;7.28;99.46;97352.41;4147267;28;20483;-72
2023/04/12 08:01:33;;;;;;;4.72;2.55;;;;;;;7.38;100.00;97356.41;4144153;28;20042;-71
2023/04/12 08:03:33;;;;;;;5.43;2.10;;;;;;;7.39;97.39;97348.94;4145940;28;20084;-72
2023/04/12 08:05:34;;;;;;;5.60;2.00;;;;;;;7.47;97.47;97350.56;4145025;28;20056;-72
2023/04/12 08:07:34;;;;;;;2.72;1.88;;;;;;;7.50;96.78;97344.25;4144042;28;20442;-72
2023/04/12 08:09:34;;;;;;;6.03;2.00;;;;;;;7.49;98.18;97337.19;4143266;28;20052;-72
2023/04/12 08:11:35;;;;;;;5.25;2.22;;;;;;;7.53;98.69;97337.97;4143708;28;20450;-72
2023/04/12 08:13:35;;;;;;;6.63;1.80;;;;;;;7.59;98.04;97341.94;4148274;28;20569;-72
2023/04/12 08:15:35;;;;;;;3.80;2.20;;;;;;;7.62;98.45;97349.47;4149043;28;20084;-72
2023/04/12 08:17:36;;;;;;;10.05;2.35;;;;;;;7.71;100.00;97340.84;4142701;28;20444;-72
2023/04/12 08:19:36;;;;;;;3.83;2.05;;;;;;;7.72;96.58;97345.97;4143298;28;20501;-72
2023/04/12 08:21:37;;;;;;;4.85;1.95;;;;;;;7.71;94.40;97340.84;4143634;28;20081;-71
2023/04/12 08:23:37;;;;;;;4.07;1.50;;;;;;;7.75;96.17;97336.91;4142218;28;20037;-71
2023/04/12 08:25:38;;;;;;;2.45;1.50;;;;;;;7.81;96.42;97340.88;4143785;28;20049;-71
2023/04/12 08:27:41;;;;;;;4.13;1.75;;;;;;;7.82;95.59;97330.66;4142687;28;20057;-71
2023/04/12 08:29:41;;;;;;;3.58;2.03;;;;;;;7.88;97.09;97337.38;4146750;28;20037;-71
2023/04/12 08:31:42;;;;;;;3.85;1.88;;;;;;;7.92;94.24;97334.63;4143262;28;20129;-72
2023/04/12 08:33:42;;;;;;;4.88;2.08;;;;;;;7.83;93.11;97322.00;4141671;28;20058;-72
2023/04/12 08:35:42;;;;;;;2.78;1.77;;;;;;;7.87;95.55;97320.06;4143014;28;20085;-72
2023/04/12 08:37:43;;;;;;;5.18;2.10;;;;;;;7.88;93.42;97321.63;4142296;28;20127;-72
2023/04/12 08:39:43;;;;;;;7.43;2.05;;;;;;;7.85;93.37;97307.84;4142954;28;20479;-72
2023/04/12 08:41:44;;;;;;;6.53;1.77;;;;;;;7.89;94.44;97305.91;4149781;28;20034;-72
2023/04/12 08:43:46;;;;;;;6.97;1.80;;;;;;;7.84;92.29;97298.78;4141454;28;20076;-72
2023/04/12 08:45:47;;;;;;;3.80;1.40;;;;;;;7.78;93.41;97297.63;4143141;28;20053;-72
2023/04/12 08:47:48;;;;;;;5.47;2.45;;;;;;;7.78;94.66;97285.81;4143635;28;20474;-71
2023/04/12 08:49:48;;;;;;;3.08;1.73;;;;;;;7.84;92.75;97292.50;4151651;28;20042;-71
2023/04/12 08:51:49;;;;;;;2.03;1.48;;;;;;;7.78;93.30;97294.84;4145463;28;20057;-71
2023/04/12 08:53:51;;;;;;;2.38;1.50;;;;;;;7.77;94.99;97282.25;4144926;28;20321;-71
2023/04/12 08:55:52;;;;;;;2.22;1.63;;;;;;;7.76;94.19;97277.91;4151109;28;20413;-71
2023/04/12 08:57:57;;;;;;;2.28;1.48;;;;;;;7.75;95.19;97281.06;4145087;28;20120;-72
2023/04/12 09:00:02;;;;;;;3.72;1.83;;;;;;;7.72;95.32;97268.09;4145060;28;20049;-71
2023/04/12 09:02:03;;;;;;;5.80;2.00;;;;;;;7.73;95.64;97267.69;4146367;28;20065;-72
2023/04/12 09:04:06;;;;;;;3.13;1.58;;;;;;;7.62;95.71;97269.63;4145454;28;20108;-72
2023/04/12 09:06:07;;;;;;;2.38;1.30;;;;;;;7.57;97.21;97270.00;4148336;28;20092;-72
2023/04/12 09:08:07;;;;;;;6.72;2.28;;;;;;;7.55;95.56;97258.59;4146715;28;20053;-72
2023/04/12 09:10:08;;;;;;;3.55;1.73;;;;;;;7.54;94.58;97260.56;4146175;28;20073;-72
2023/04/12 09:12:09;;;;;;;3.25;1.40;;;;;;;7.48;97.23;97256.59;4145416;28;20029;-72
2023/04/12 09:14:24;;;;;;;1.83;1.30;;;;;;;7.44;98.29;97247.50;4144643;28;20036;-72
2023/04/12 09:16:38;;;;;;;3.67;1.58;;;;;;;7.39;97.69;97247.91;4146174;28;20486;-71
2023/04/12 09:18:50;;;;;;;4.55;1.80;;;;;;;7.42;98.44;97238.88;4147477;28;20050;-71
2023/04/12 09:21:05;;;;;;;4.57;1.67;;;;;;;7.37;98.09;97235.72;4147684;28;20138;-71
2023/04/12 09:23:25;;;;;;;2.08;1.50;;;;;;;7.35;97.55;97233.31;4145445;28;20049;-71
2023/04/12 09:25:36;;;;;;;2.17;1.40;;;;;;;7.42;97.74;97224.31;4147119;28;20080;-71
2023/04/12 09:27:51;;;;;;;3.95;1.52;;;;;;;7.46;100.00;97216.88;4146047;28;20038;-71
2023/04/12 09:30:05;;;;;;;2.75;1.60;;;;;;;7.36;100.00;97217.59;4145808;28;20377;-71
2023/04/12 09:32:08;;;;;;;3.85;1.70;;;;;;;7.35;100.00;97213.28;4145031;28;20038;-72
2023/04/12 09:34:08;;;;;;;4.35;1.55;;;;;;;7.34;100.00;97209.75;4146855;28;20033;-72
2023/04/12 09:36:12;;;;;;;1.88;1.27;;;;;;;7.38;100.00;97218.81;4145645;28;20121;-72